Time;durP1;ratioP1;P1;durP2;ratioP2;P2;SDS_P1;SDS_P2;PMS_P1;PMS_P2;Temp;Humidity;BMP_temperature;BMP_pressure;BME280_temperature;BME280_humidity;BME280_pressure;Samples;Min_cycle;Max_cycle;Signal;HPM_P1;HPM_P2
2022/08/08 00:02:37;;;;;;;3.80;3.50;;;20.30;99.90;;;;;;4993201;28;20969;-64
2022/08/08 00:05:24;;;;;;;5.40;3.93;;;20.30;99.90;;;;;;4992203;28;20905;-64
2022/08/08 00:08:07;;;;;;;4.57;3.67;;;20.20;99.90;;;;;;4993139;28;20494;-64
2022/08/08 00:11:04;;;;;;;11.30;3.70;;;20.10;99.90;;;;;;4993006;28;20975;-64
2022/08/08 00:13:33;;;;;;;7.03;3.67;;;20.20;99.90;;;;;;4993104;28;20396;-64
2022/08/08 00:16:11;;;;;;;7.50;3.67;;;20.30;99.90;;;;;;4993135;28;20401;-64
2022/08/08 00:18:58;;;;;;;5.10;3.53;;;20.20;99.90;;;;;;4992794;28;20404;-64
2022/08/08 00:21:30;;;;;;;7.13;3.43;;;20.20;99.90;;;;;;4992880;28;20416;-64
2022/08/08 00:24:14;;;;;;;6.73;3.60;;;20.20;99.90;;;;;;4992918;28;20963;-63
2022/08/08 00:26:45;;;;;;;4.40;3.70;;;20.10;99.90;;;;;;4992783;28;20424;-63
2022/08/08 00:29:21;;;;;;;4.67;3.50;;;20.10;99.90;;;;;;4992477;28;20459;-64
2022/08/08 00:31:49;;;;;;;4.67;3.53;;;20.20;99.90;;;;;;4992772;28;20507;-63
2022/08/08 00:37:33;;;;;;;13.67;4.10;;;20.10;99.90;;;;;;4992598;28;20466;-65
2022/08/08 00:40:12;;;;;;;10.33;3.80;;;20.00;99.90;;;;;;4992385;28;20404;-65
2022/08/08 00:42:50;;;;;;;4.20;3.00;;;20.00;99.90;;;;;;4992618;28;20396;-65
2022/08/08 00:45:54;;;;;;;3.27;2.97;;;20.00;99.90;;;;;;4992442;28;20392;-65
2022/08/08 00:48:53;;;;;;;5.90;3.50;;;19.90;99.90;;;;;;4978051;28;20534;-64
2022/08/08 00:51:35;;;;;;;4.03;3.27;;;19.90;99.90;;;;;;4992502;28;20924;-64
2022/08/08 00:54:31;;;;;;;4.47;3.20;;;19.80;99.90;;;;;;4992541;28;20405;-64
2022/08/08 00:57:42;;;;;;;3.43;2.90;;;19.80;99.90;;;;;;4992174;28;20404;-64
2022/08/08 01:00:13;;;;;;;4.47;3.80;;;19.70;99.90;;;;;;4992161;28;20499;-64
2022/08/08 01:02:54;;;;;;;8.70;4.33;;;19.60;99.90;;;;;;4992086;28;20404;-65
2022/08/08 01:05:41;;;;;;;5.30;3.63;;;19.70;99.90;;;;;;4992175;28;20415;-64
2022/08/08 01:08:38;;;;;;;5.27;3.67;;;19.70;99.90;;;;;;4991828;28;20459;-64
2022/08/08 01:11:12;;;;;;;8.03;4.50;;;19.70;99.90;;;;;;4991874;28;20450;-64
2022/08/08 01:14:13;;;;;;;12.73;4.83;;;19.80;99.90;;;;;;4992296;28;20775;-64
2022/08/08 01:16:48;;;;;;;7.33;4.23;;;19.80;99.90;;;;;;4991834;28;20904;-64
2022/08/08 01:19:48;;;;;;;4.13;3.73;;;19.80;99.90;;;;;;4991774;28;20434;-64
2022/08/08 01:22:34;;;;;;;4.33;3.43;;;19.80;99.90;;;;;;4921945;28;20475;-64
2022/08/08 01:25:17;;;;;;;5.07;3.50;;;19.70;99.90;;;;;;4991907;28;20408;-64
2022/08/08 01:28:01;;;;;;;5.43;4.00;;;19.80;99.90;;;;;;4991799;28;20772;-64
2022/08/08 01:30:54;;;;;;;4.23;3.83;;;19.70;99.90;;;;;;4991791;28;21090;-64
2022/08/08 01:33:57;;;;;;;6.27;4.13;;;19.70;99.90;;;;;;4991867;28;20423;-64
2022/08/08 01:37:00;;;;;;;10.03;4.03;;;19.70;99.90;;;;;;4991986;28;20403;-64
2022/08/08 01:40:03;;;;;;;6.90;3.63;;;19.50;99.90;;;;;;4991423;28;20408;-64
2022/08/08 01:42:47;;;;;;;5.33;3.83;;;19.50;99.90;;;;;;4961497;28;20859;-65
2022/08/08 01:45:25;;;;;;;7.63;4.67;;;19.50;99.90;;;;;;4991648;28;20454;-65
2022/08/08 01:48:23;;;;;;;5.60;4.10;;;19.40;99.90;;;;;;4991266;28;20872;-64
2022/08/08 01:51:21;;;;;;;5.30;3.63;;;19.40;99.90;;;;;;4991514;28;20412;-64
2022/08/08 01:54:14;;;;;;;9.63;4.43;;;19.40;99.90;;;;;;4947860;28;20781;-64
2022/08/08 01:57:04;;;;;;;8.70;4.67;;;19.40;99.90;;;;;;4991696;28;20400;-64
2022/08/08 01:59:42;;;;;;;5.77;3.57;;;19.40;99.90;;;;;;4991416;28;20833;-64
2022/08/08 02:02:21;;;;;;;7.10;3.90;;;19.50;99.90;;;;;;4991302;28;20762;-64
2022/08/08 02:04:58;;;;;;;4.40;4.00;;;19.40;99.90;;;;;;4991411;28;20410;-64
2022/08/08 02:07:32;;;;;;;5.13;3.90;;;19.30;99.90;;;;;;4991296;28;20410;-64
2022/08/08 02:10:06;;;;;;;5.70;3.70;;;19.30;99.90;;;;;;4990996;28;20978;-64
2022/08/08 02:12:47;;;;;;;6.70;4.00;;;19.40;99.90;;;;;;4991385;28;20463;-62
2022/08/08 02:15:28;;;;;;;18.53;4.63;;;19.40;99.90;;;;;;4991382;28;20447;-63
2022/08/08 02:18:11;;;;;;;6.80;4.40;;;19.30;99.90;;;;;;4991078;28;20407;-63
2022/08/08 02:22:30;;;;;;;15.50;5.07;;;19.20;99.90;;;;;;4991258;28;20420;-64
2022/08/08 02:23:45;;;;;;;5.23;4.20;;;19.20;99.90;;;;;;4991090;28;20408;-64
2022/08/08 02:26:32;;;;;;;5.60;4.43;;;19.00;99.90;;;;;;4991316;28;20405;-64
2022/08/08 02:29:09;;;;;;;4.80;4.40;;;19.00;99.90;;;;;;4994463;28;20443;-64
2022/08/08 02:32:19;;;;;;;5.33;4.10;;;19.00;99.90;;;;;;4995058;28;20424;-64
2022/08/08 02:35:01;;;;;;;7.80;4.00;;;19.00;99.90;;;;;;4915672;29;20423;-64
2022/08/08 02:37:34;;;;;;;7.80;3.90;;;19.00;99.90;;;;;;4915436;29;20416;-64
2022/08/08 02:40:10;;;;;;;6.47;3.87;;;19.00;99.90;;;;;;4968385;28;20530;-64
2022/08/08 02:43:09;;;;;;;6.97;4.37;;;19.00;99.90;;;;;;4995171;28;20392;-64
2022/08/08 02:46:05;;;;;;;22.57;5.03;;;19.00;99.90;;;;;;4995186;28;20400;-64
2022/08/08 02:48:53;;;;;;;9.97;4.37;;;19.00;99.90;;;;;;4995456;28;20483;-64
2022/08/08 02:51:40;;;;;;;4.43;4.03;;;19.00;99.90;;;;;;4957929;28;20979;-65
2022/08/08 02:54:15;;;;;;;12.00;4.30;;;19.00;99.90;;;;;;4994554;28;20415;-64
2022/08/08 02:57:19;;;;;;;8.87;4.63;;;19.00;99.90;;;;;;4994688;28;20900;-64
2022/08/08 03:00:16;;;;;;;4.73;4.33;;;19.00;99.90;;;;;;4994512;28;20435;-64
2022/08/08 03:03:13;;;;;;;4.90;4.40;;;19.00;99.90;;;;;;4994295;28;20939;-64
2022/08/08 03:06:19;;;;;;;9.30;5.80;;;18.90;99.90;;;;;;4994272;28;20408;-65
2022/08/08 03:09:22;;;;;;;5.43;3.93;;;18.90;99.90;;;;;;4993867;28;20452;-64
2022/08/08 03:11:50;;;;;;;7.67;5.20;;;18.90;99.90;;;;;;4994716;28;20454;-65
2022/08/08 03:14:22;;;;;;;11.47;5.17;;;18.90;99.90;;;;;;4994252;28;20411;-65
2022/08/08 03:16:59;;;;;;;11.33;4.80;;;18.90;99.90;;;;;;4994153;28;20878;-65
2022/08/08 03:20:20;;;;;;;8.20;5.33;;;18.90;99.90;;;;;;4993892;28;20435;-65
2022/08/08 03:22:49;;;;;;;9.87;4.90;;;18.80;99.90;;;;;;4993905;28;20782;-65
2022/08/08 03:25:17;;;;;;;5.70;4.43;;;18.80;99.90;;;;;;4994115;28;20400;-66
2022/08/08 03:27:48;;;;;;;8.77;4.90;;;18.80;99.90;;;;;;4993865;28;20423;-66
2022/08/08 03:30:15;;;;;;;8.90;5.37;;;18.80;99.90;;;;;;4993907;28;20511;-65
2022/08/08 03:35:27;;;;;;;6.20;4.80;;;18.70;99.90;;;;;;4994101;28;20495;-65
2022/08/08 03:37:53;;;;;;;8.57;4.67;;;18.70;99.90;;;;;;4992574;28;20432;-65
2022/08/08 03:40:21;;;;;;;13.23;5.70;;;18.70;99.90;;;;;;4991380;28;20478;-65
2022/08/08 03:42:47;;;;;;;20.40;6.40;;;18.70;99.90;;;;;;4991153;28;20422;-65
2022/08/08 03:45:24;;;;;;;14.20;5.27;;;18.70;99.90;;;;;;4991492;28;20480;-65
2022/08/08 03:48:02;;;;;;;6.23;5.13;;;18.60;99.90;;;;;;4990623;28;20490;-65
2022/08/08 03:50:30;;;;;;;15.67;4.87;;;18.60;99.90;;;;;;4990810;28;20753;-65
2022/08/08 03:52:56;;;;;;;14.53;4.73;;;18.60;99.90;;;;;;4991244;28;20409;-65
2022/08/08 03:55:23;;;;;;;18.73;5.33;;;18.50;99.90;;;;;;4991203;28;20418;-65
2022/08/08 03:57:55;;;;;;;23.87;6.80;;;18.60;99.90;;;;;;4990651;28;20911;-65
2022/08/08 04:00:24;;;;;;;15.70;6.63;;;18.60;99.90;;;;;;4990705;28;20436;-65
2022/08/08 04:03:09;;;;;;;6.73;4.83;;;18.60;99.90;;;;;;4990660;28;20400;-65
2022/08/08 04:05:37;;;;;;;40.70;8.07;;;18.50;99.90;;;;;;4990526;28;20474;-65
2022/08/08 04:08:05;;;;;;;34.20;8.00;;;18.50;99.90;;;;;;4990778;28;20451;-64
2022/08/08 04:10:32;;;;;;;20.60;6.20;;;18.50;99.90;;;;;;4990376;28;20676;-64
2022/08/08 04:12:58;;;;;;;29.60;8.10;;;18.50;99.90;;;;;;4990940;28;20551;-66
2022/08/08 04:15:23;;;;;;;20.97;5.77;;;18.50;99.90;;;;;;4990930;28;20415;-65
2022/08/08 04:17:50;;;;;;;19.50;6.40;;;18.40;99.90;;;;;;4990199;28;20790;-65
2022/08/08 04:20:16;;;;;;;22.17;6.30;;;18.50;99.90;;;;;;4990579;28;20271;-65
2022/08/08 04:22:41;;;;;;;28.03;8.10;;;18.50;99.90;;;;;;4990420;28;20563;-65
2022/08/08 04:25:08;;;;;;;40.60;9.00;;;18.50;99.90;;;;;;4990645;28;20180;-64
2022/08/08 04:27:34;;;;;;;26.87;7.40;;;18.50;99.90;;;;;;4990390;28;20200;-64
2022/08/08 04:30:05;;;;;;;8.37;5.83;;;18.50;99.90;;;;;;4990058;28;20467;-65
2022/08/08 04:32:31;;;;;;;16.63;6.40;;;18.50;99.90;;;;;;4990887;28;20566;-65
2022/08/08 04:34:57;;;;;;;13.40;6.50;;;18.50;99.90;;;;;;4990055;28;20412;-65
2022/08/08 04:37:22;;;;;;;13.17;5.93;;;18.50;99.90;;;;;;4990291;28;20417;-65
2022/08/08 04:39:48;;;;;;;13.73;6.40;;;18.60;99.90;;;;;;4989806;28;20601;-64
2022/08/08 04:42:14;;;;;;;29.50;7.70;;;18.60;99.90;;;;;;4990378;28;20201;-64
2022/08/08 04:44:40;;;;;;;21.73;7.97;;;18.60;99.90;;;;;;4990137;28;20648;-64
2022/08/08 04:47:06;;;;;;;52.63;9.03;;;18.70;99.90;;;;;;4990252;28;20184;-64
2022/08/08 04:49:32;;;;;;;32.23;7.67;;;18.70;99.90;;;;;;4989875;28;20222;-64
2022/08/08 04:51:59;;;;;;;33.73;8.07;;;18.70;99.90;;;;;;4989618;28;20427;-64
2022/08/08 04:54:24;;;;;;;15.50;6.90;;;18.70;99.90;;;;;;4990267;28;20256;-64
2022/08/08 04:56:51;;;;;;;14.80;6.27;;;18.90;99.90;;;;;;4989843;28;20499;-63
2022/08/08 04:59:16;;;;;;;29.70;7.73;;;19.50;99.90;;;;;;4989860;28;20176;-64
2022/08/08 05:01:42;;;;;;;19.27;6.23;;;20.40;99.90;;;;;;4990008;28;20448;-64
2022/08/08 05:04:08;;;;;;;11.90;5.70;;;20.90;99.90;;;;;;4989854;28;20181;-64
2022/08/08 05:06:34;;;;;;;7.50;5.33;;;20.90;99.90;;;;;;4990087;28;20184;-65
2022/08/08 05:09:00;;;;;;;5.87;5.30;;;21.10;99.90;;;;;;4988836;28;20323;-65
2022/08/08 05:11:25;;;;;;;6.13;5.20;;;21.20;99.90;;;;;;4989535;28;20810;-64
2022/08/08 05:13:51;;;;;;;8.53;6.17;;;21.30;99.90;;;;;;4989346;28;20173;-64
2022/08/08 05:16:17;;;;;;;13.30;6.47;;;21.40;99.90;;;;;;4989716;28;20165;-64
2022/08/08 05:18:43;;;;;;;6.20;5.60;;;21.40;99.90;;;;;;4989280;28;20447;-65
2022/08/08 05:21:09;;;;;;;9.47;6.30;;;21.70;99.90;;;;;;4990186;28;20197;-64
2022/08/08 05:23:35;;;;;;;26.27;6.70;;;21.70;99.90;;;;;;4989683;28;20169;-64
2022/08/08 05:26:02;;;;;;;17.63;6.03;;;21.80;99.90;;;;;;4989446;28;20683;-64
2022/08/08 05:28:28;;;;;;;28.13;6.60;;;21.90;99.90;;;;;;4989501;28;20451;-65
2022/08/08 05:30:54;;;;;;;25.57;5.90;;;22.20;99.90;;;;;;4988987;28;20897;-65
2022/08/08 05:33:20;;;;;;;6.53;5.13;;;22.30;99.90;;;;;;4989246;28;20412;-65
2022/08/08 05:35:46;;;;;;;9.83;5.40;;;22.30;99.90;;;;;;4989542;28;20467;-65
2022/08/08 05:38:17;;;;;;;7.20;6.03;;;22.40;99.90;;;;;;4988397;28;20513;-65
2022/08/08 05:40:51;;;;;;;12.00;5.10;;;22.60;99.90;;;;;;4989344;28;20439;-65
2022/08/08 05:43:27;;;;;;;7.10;5.10;;;22.70;99.90;;;;;;4971549;28;20420;-64
2022/08/08 05:45:59;;;;;;;7.57;4.63;;;22.90;99.90;;;;;;4989439;28;20435;-64
2022/08/08 05:48:26;;;;;;;8.00;5.60;;;23.00;99.90;;;;;;4988966;28;20464;-65
2022/08/08 05:50:52;;;;;;;5.37;4.87;;;23.00;99.90;;;;;;4988225;28;20439;-65
2022/08/08 05:53:24;;;;;;;5.93;5.10;;;23.10;99.90;;;;;;4988991;28;20412;-65
2022/08/08 05:55:52;;;;;;;20.63;5.80;;;23.00;99.90;;;;;;4989558;28;20415;-64
2022/08/08 05:58:19;;;;;;;6.37;5.70;;;22.80;99.90;;;;;;4988742;28;20420;-64
2022/08/08 06:00:47;;;;;;;6.30;4.80;;;22.80;99.90;;;;;;4989309;28;20442;-64
2022/08/08 06:03:16;;;;;;;5.80;5.30;;;22.80;99.90;;;;;;4991929;28;20431;-65
2022/08/08 06:05:55;;;;;;;8.53;5.40;;;22.90;99.90;;;;;;4992762;28;20408;-64
2022/08/08 06:08:29;;;;;;;10.63;5.57;;;22.60;99.90;;;;;;4992704;28;20490;-65
2022/08/08 06:10:57;;;;;;;33.77;8.10;;;22.70;99.90;;;;;;4993015;28;20446;-65
2022/08/08 06:13:24;;;;;;;5.83;5.20;;;22.90;99.90;;;;;;4993144;28;20407;-64
2022/08/08 06:15:53;;;;;;;5.37;4.97;;;22.70;99.90;;;;;;4992713;28;20404;-64
2022/08/08 06:18:22;;;;;;;5.97;5.50;;;22.50;99.90;;;;;;4992622;28;20412;-65
2022/08/08 06:20:49;;;;;;;7.53;6.30;;;22.30;99.90;;;;;;4992840;28;20432;-65
2022/08/08 06:23:15;;;;;;;7.17;5.83;;;22.30;99.90;;;;;;4993102;28;20789;-64
2022/08/08 06:25:42;;;;;;;22.80;8.40;;;21.90;99.90;;;;;;4992982;28;20424;-65
2022/08/08 06:28:22;;;;;;;9.57;5.70;;;21.90;99.90;;;;;;4992124;28;20193;-65
2022/08/08 06:30:51;;;;;;;7.63;6.93;;;22.60;99.90;;;;;;4992515;28;20954;-65
2022/08/08 06:33:26;;;;;;;8.57;5.80;;;22.20;99.90;;;;;;4992171;28;20416;-65
2022/08/08 06:35:53;;;;;;;6.57;6.07;;;22.40;99.90;;;;;;4992759;28;20914;-65
2022/08/08 06:38:22;;;;;;;9.03;6.10;;;22.40;99.90;;;;;;4991505;28;20867;-65
2022/08/08 06:40:51;;;;;;;5.63;5.23;;;22.50;99.90;;;;;;4991214;28;20432;-65
2022/08/08 06:43:22;;;;;;;18.73;6.33;;;22.40;99.90;;;;;;4991941;28;20451;-65
2022/08/08 06:45:48;;;;;;;37.17;8.10;;;22.20;99.90;;;;;;4992016;28;20411;-65
2022/08/08 06:48:15;;;;;;;7.40;5.43;;;22.70;99.90;;;;;;4991781;28;20502;-65
2022/08/08 06:50:41;;;;;;;7.33;4.70;;;22.70;99.90;;;;;;4992431;28;20428;-64
2022/08/08 06:53:07;;;;;;;8.63;4.87;;;22.70;99.90;;;;;;4992159;28;20415;-64
2022/08/08 06:55:35;;;;;;;6.27;5.77;;;22.80;99.90;;;;;;4992435;28;20776;-64
2022/08/08 06:58:01;;;;;;;6.97;5.50;;;22.30;99.90;;;;;;4992032;28;20436;-64
2022/08/08 07:00:33;;;;;;;6.03;5.50;;;22.10;99.90;;;;;;4991721;28;20946;-65
2022/08/08 07:03:01;;;;;;;11.33;5.30;;;22.30;99.90;;;;;;4992163;28;20411;-64
2022/08/08 07:05:32;;;;;;;8.50;5.50;;;22.10;99.90;;;;;;4991554;28;20443;-65
2022/08/08 07:08:06;;;;;;;6.07;5.47;;;22.50;99.90;;;;;;4991619;28;20462;-64
2022/08/08 07:10:36;;;;;;;5.30;4.90;;;22.80;99.90;;;;;;4991312;28;20505;-65
2022/08/08 07:13:09;;;;;;;7.10;5.60;;;22.50;99.90;;;;;;4991207;28;20462;-64
2022/08/08 07:15:37;;;;;;;5.53;5.03;;;22.80;99.90;;;;;;4991765;28;20409;-65
2022/08/08 07:18:05;;;;;;;4.27;3.97;;;22.90;99.90;;;;;;4991641;28;20407;-64
2022/08/08 07:20:36;;;;;;;6.23;5.60;;;22.90;99.90;;;;;;4993106;28;20432;-64
2022/08/08 07:23:19;;;;;;;5.73;4.70;;;23.10;99.90;;;;;;4992806;28;20996;-64
2022/08/08 07:25:48;;;;;;;5.70;4.63;;;23.10;99.90;;;;;;4992825;28;20452;-64
2022/08/08 07:28:18;;;;;;;8.30;4.80;;;23.70;99.90;;;;;;4995697;28;20491;-64
2022/08/08 07:30:45;;;;;;;17.00;6.37;;;23.30;99.90;;;;;;5000100;28;20420;-64
2022/08/08 07:33:11;;;;;;;6.63;5.50;;;23.90;99.90;;;;;;4997861;28;20980;-65
2022/08/08 07:35:38;;;;;;;5.30;4.80;;;24.30;99.90;;;;;;4995531;28;20487;-65
2022/08/08 07:38:05;;;;;;;9.27;4.57;;;24.00;99.90;;;;;;4993706;28;20412;-65
2022/08/08 07:40:32;;;;;;;7.23;4.33;;;24.10;99.90;;;;;;4993642;28;20498;-65
2022/08/08 07:43:00;;;;;;;5.20;4.70;;;24.20;99.90;;;;;;4993781;28;20405;-65
2022/08/08 07:45:25;;;;;;;4.40;4.00;;;24.00;99.90;;;;;;4993904;28;20408;-66
2022/08/08 07:47:53;;;;;;;5.33;4.40;;;24.00;99.90;;;;;;4993600;28;20486;-65
2022/08/08 07:50:22;;;;;;;4.40;4.00;;;23.90;99.90;;;;;;4993429;28;20803;-65
2022/08/08 07:52:54;;;;;;;4.57;4.17;;;23.80;99.90;;;;;;4994045;28;20455;-65
2022/08/08 07:55:26;;;;;;;4.83;4.43;;;23.80;99.90;;;;;;4995050;28;20776;-65
2022/08/08 07:58:00;;;;;;;5.27;4.80;;;23.50;99.90;;;;;;4994714;28;20772;-65
2022/08/08 08:00:55;;;;;;;3.83;3.53;;;23.30;99.90;;;;;;4998923;28;20451;-65
2022/08/08 08:03:30;;;;;;;5.43;4.20;;;23.00;99.90;;;;;;5000885;28;20431;-64
2022/08/08 08:05:58;;;;;;;7.50;4.37;;;22.50;99.90;;;;;;5006716;28;20431;-65
2022/08/08 08:08:29;;;;;;;5.80;4.53;;;22.70;99.90;;;;;;5004672;28;20459;-66
2022/08/08 08:10:56;;;;;;;6.10;3.80;;;23.00;99.90;;;;;;5005446;28;20483;-66
2022/08/08 08:13:53;;;;;;;5.20;4.40;;;23.30;99.90;;;;;;5004866;28;20447;-66
2022/08/08 08:16:23;;;;;;;6.17;5.67;;;23.60;99.90;;;;;;5005846;28;20447;-66
2022/08/08 08:19:03;;;;;;;4.87;4.37;;;24.00;99.90;;;;;;5004741;28;20415;-65
2022/08/08 08:21:36;;;;;;;12.83;4.30;;;23.70;99.90;;;;;;5004283;28;20431;-65
2022/08/08 08:24:03;;;;;;;6.80;4.87;;;23.90;99.90;;;;;;5003857;28;20428;-65
2022/08/08 08:26:28;;;;;;;6.77;3.80;;;23.70;99.90;;;;;;5004140;28;20412;-65
2022/08/08 08:28:54;;;;;;;9.00;4.63;;;23.90;99.90;;;;;;5004198;28;20459;-65
2022/08/08 08:31:20;;;;;;;13.87;5.27;;;23.80;99.90;;;;;;5004514;28;20192;-65
2022/08/08 08:33:46;;;;;;;4.20;3.80;;;24.10;99.90;;;;;;5005960;28;20173;-64
2022/08/08 08:36:12;;;;;;;4.50;4.20;;;24.20;99.90;;;;;;5008616;28;20192;-65
2022/08/08 08:38:39;;;;;;;5.50;4.43;;;24.10;99.90;;;;;;4990832;28;20243;-64
2022/08/08 08:41:11;;;;;;;4.60;4.20;;;23.80;99.90;;;;;;4992969;28;20607;-65
2022/08/08 08:43:38;;;;;;;4.33;3.93;;;23.70;99.90;;;;;;4992840;28;20404;-65
2022/08/08 08:46:08;;;;;;;5.37;4.00;;;24.00;99.90;;;;;;4992455;28;21028;-65
2022/08/08 08:48:33;;;;;;;5.50;3.70;;;23.90;99.90;;;;;;4991751;28;20473;-65
2022/08/08 08:51:01;;;;;;;6.80;4.00;;;24.30;99.90;;;;;;4992745;28;20523;-65
2022/08/08 08:53:27;;;;;;;4.97;4.57;;;24.50;99.90;;;;;;4992467;28;20695;-64
2022/08/08 08:55:56;;;;;;;5.13;4.00;;;24.40;99.90;;;;;;4992608;28;20439;-64
2022/08/08 08:58:43;;;;;;;5.17;3.90;;;24.20;99.90;;;;;;4992013;28;20417;-64
2022/08/08 09:01:15;;;;;;;5.43;3.87;;;24.40;99.90;;;;;;4992462;28;20447;-65
2022/08/08 09:03:44;;;;;;;4.00;3.47;;;24.30;99.90;;;;;;4992590;28;20774;-65
2022/08/08 09:06:10;;;;;;;7.23;4.10;;;24.60;99.90;;;;;;4992240;28;20465;-67
2022/08/08 09:08:43;;;;;;;6.40;5.70;;;24.40;99.30;;;;;;4991605;28;20467;-64
2022/08/08 09:11:09;;;;;;;4.50;4.10;;;24.40;99.10;;;;;;4992461;28;20947;-65
2022/08/08 09:13:37;;;;;;;3.83;3.53;;;24.10;99.60;;;;;;4992099;28;20408;-65
2022/08/08 09:16:03;;;;;;;10.67;4.97;;;24.40;99.50;;;;;;4992131;28;20571;-64
2022/08/08 09:18:33;;;;;;;5.80;4.47;;;24.80;99.90;;;;;;4991769;28;20423;-64
2022/08/08 09:21:01;;;;;;;5.80;3.87;;;25.00;98.00;;;;;;4989942;28;20511;-64
2022/08/08 09:23:28;;;;;;;6.50;3.90;;;24.80;96.80;;;;;;4990806;28;20424;-64
2022/08/08 09:26:18;;;;;;;7.10;3.80;;;25.00;95.90;;;;;;4991758;28;20495;-65
2022/08/08 09:28:43;;;;;;;4.87;4.47;;;24.80;95.20;;;;;;4991398;28;20825;-64
2022/08/08 09:31:26;;;;;;;4.53;3.97;;;24.70;94.80;;;;;;4991763;28;20436;-64
2022/08/08 09:33:54;;;;;;;3.57;3.17;;;24.60;93.50;;;;;;4991976;28;20545;-65
2022/08/08 09:36:21;;;;;;;4.30;3.47;;;25.10;94.40;;;;;;4991425;28;20473;-64
2022/08/08 09:38:58;;;;;;;6.73;4.13;;;24.90;91.60;;;;;;4991201;28;20416;-64
2022/08/08 09:41:37;;;;;;;7.30;3.90;;;25.00;91.70;;;;;;4991664;28;20430;-64
2022/08/08 09:44:19;;;;;;;4.00;3.40;;;25.10;90.60;;;;;;4991547;28;20411;-64
2022/08/08 09:46:49;;;;;;;5.80;3.60;;;24.90;89.80;;;;;;4992043;28;20419;-65
2022/08/08 09:49:19;;;;;;;6.43;4.10;;;24.80;87.40;;;;;;4991868;28;20547;-64
2022/08/08 09:51:51;;;;;;;4.80;3.53;;;24.70;87.60;;;;;;4991811;28;20435;-65
2022/08/08 09:54:20;;;;;;;3.67;3.37;;;24.90;89.10;;;;;;4991777;28;20530;-64
2022/08/08 09:56:53;;;;;;;4.80;3.70;;;25.00;87.00;;;;;;4991698;28;20559;-64
2022/08/08 09:59:25;;;;;;;6.13;3.57;;;24.80;95.20;;;;;;4991320;28;20426;-65
2022/08/08 10:01:52;;;;;;;7.43;3.23;;;24.50;78.40;;;;;;4991510;28;20606;-65
2022/08/08 10:04:21;;;;;;;4.10;3.70;;;24.70;74.90;;;;;;4991589;28;20525;-65
2022/08/08 10:06:47;;;;;;;3.70;3.17;;;24.40;72.20;;;;;;4991456;28;20425;-65
2022/08/08 10:09:13;;;;;;;5.87;3.50;;;24.50;72.90;;;;;;4990916;28;20466;-65
2022/08/08 10:11:47;;;;;;;14.20;4.30;;;24.40;71.50;;;;;;4991044;28;20494;-65
2022/08/08 10:14:13;;;;;;;7.23;3.63;;;24.60;72.10;;;;;;4991206;28;20419;-65
2022/08/08 10:16:40;;;;;;;4.10;3.47;;;25.20;74.40;;;;;;4991369;28;20412;-65
2022/08/08 10:19:11;;;;;;;3.50;3.20;;;25.40;73.60;;;;;;4991036;28;20174;-65
2022/08/08 10:21:38;;;;;;;4.00;3.10;;;25.40;70.30;;;;;;4991604;28;20436;-65
2022/08/08 10:24:09;;;;;;;8.70;4.03;;;25.30;68.00;;;;;;4990095;28;20844;-66
2022/08/08 10:26:38;;;;;;;6.33;3.83;;;25.40;70.20;;;;;;4991193;28;20784;-63
2022/08/08 10:29:10;;;;;;;4.03;3.60;;;25.10;68.10;;;;;;4991046;28;20467;-63
2022/08/08 10:34:24;;;;;;;18.93;5.27;;;25.70;67.90;;;;;;4991503;28;20426;-64
2022/08/08 10:36:52;;;;;;;5.63;3.80;;;25.80;68.10;;;;;;4991040;28;20400;-66
2022/08/08 10:39:20;;;;;;;3.80;3.13;;;25.60;64.40;;;;;;4991097;28;20414;-64
2022/08/08 10:41:58;;;;;;;4.00;3.60;;;25.70;63.90;;;;;;4992495;28;20821;-63
2022/08/08 10:44:36;;;;;;;3.37;3.07;;;25.80;63.20;;;;;;4990761;28;20414;-64
2022/08/08 10:47:28;;;;;;;4.17;3.73;;;25.80;63.00;;;;;;4988022;28;20412;-64
2022/08/08 10:50:05;;;;;;;3.53;3.20;;;25.70;61.40;;;;;;4987621;28;20532;-64
2022/08/08 10:52:41;;;;;;;4.47;3.30;;;25.60;59.60;;;;;;4991560;28;20442;-64
2022/08/08 10:55:09;;;;;;;4.83;3.40;;;25.40;58.70;;;;;;4991798;28;20747;-64
2022/08/08 10:57:43;;;;;;;6.17;3.43;;;25.40;57.70;;;;;;4990925;28;20408;-64
2022/08/08 11:00:11;;;;;;;3.80;3.37;;;25.40;56.90;;;;;;4991298;28;20419;-64
2022/08/08 11:02:38;;;;;;;5.50;3.30;;;25.60;56.80;;;;;;4991481;28;20594;-64
2022/08/08 11:05:16;;;;;;;6.07;3.90;;;25.60;56.80;;;;;;4991651;28;20496;-64
2022/08/08 11:07:47;;;;;;;6.37;3.57;;;25.50;53.90;;;;;;4990657;28;20879;-64
2022/08/08 11:10:16;;;;;;;3.77;3.43;;;25.40;69.20;;;;;;4991080;28;20988;-64
2022/08/08 11:12:52;;;;;;;6.40;2.90;;;25.30;51.50;;;;;;4990639;28;20466;-64
2022/08/08 11:15:23;;;;;;;5.37;3.23;;;25.50;51.20;;;;;;4991509;28;20416;-64
2022/08/08 11:17:50;;;;;;;26.80;6.70;;;25.30;48.80;;;;;;4990596;28;20411;-64
2022/08/08 11:20:24;;;;;;;4.70;2.73;;;25.70;50.40;;;;;;4990730;28;20463;-64
2022/08/08 11:23:01;;;;;;;3.10;2.90;;;25.50;48.80;;;;;;4990706;28;20455;-64
2022/08/08 11:25:31;;;;;;;8.17;3.07;;;25.60;48.90;;;;;;4991162;28;20451;-64
2022/08/08 11:28:00;;;;;;;3.43;3.10;;;25.80;47.80;;;;;;4991167;28;20777;-64
2022/08/08 11:30:33;;;;;;;5.73;3.20;;;25.80;46.30;;;;;;4991033;28;20438;-64
2022/08/08 11:33:02;;;;;;;6.40;4.10;;;25.80;45.10;;;;;;4991354;28;20411;-64
2022/08/08 11:35:28;;;;;;;6.23;3.30;;;25.80;43.00;;;;;;4991173;28;20431;-64
2022/08/08 11:37:54;;;;;;;4.10;2.90;;;25.80;41.20;;;;;;4990770;28;20419;-64
2022/08/08 11:40:20;;;;;;;3.60;3.10;;;25.10;39.30;;;;;;4991042;28;20478;-63
2022/08/08 11:42:47;;;;;;;2.63;2.43;;;25.20;40.10;;;;;;4990405;28;20408;-64
2022/08/08 11:45:12;;;;;;;9.70;3.20;;;25.20;39.00;;;;;;4990940;28;20185;-64
2022/08/08 11:47:39;;;;;;;4.50;3.10;;;25.10;37.10;;;;;;4990340;28;20909;-64
2022/08/08 11:50:11;;;;;;;5.90;2.97;;;25.00;36.70;;;;;;4990607;28;20205;-64
2022/08/08 11:52:38;;;;;;;6.60;2.50;;;24.90;36.00;;;;;;4990955;28;20570;-64
2022/08/08 11:55:18;;;;;;;8.23;3.53;;;25.10;36.90;;;;;;4973363;28;20495;-65
2022/08/08 11:57:45;;;;;;;4.07;2.93;;;25.50;36.60;;;;;;4990482;28;20439;-64
2022/08/08 12:00:17;;;;;;;4.67;3.00;;;25.70;36.80;;;;;;4990672;28;20498;-65
2022/08/08 12:02:49;;;;;;;3.57;2.80;;;26.00;37.10;;;;;;4990218;28;20901;-64
2022/08/08 12:05:15;;;;;;;2.57;2.20;;;26.10;35.40;;;;;;4990999;28;20412;-64
2022/08/08 12:07:52;;;;;;;4.00;2.80;;;26.00;33.80;;;;;;4990606;28;20404;-65
2022/08/08 12:10:20;;;;;;;4.33;2.97;;;25.90;32.60;;;;;;4991555;28;20471;-64
2022/08/08 12:12:47;;;;;;;3.30;2.77;;;25.70;31.50;;;;;;4989518;28;20408;-64
2022/08/08 12:15:25;;;;;;;4.60;2.97;;;25.40;29.20;;;;;;4991529;28;20835;-65
2022/08/08 12:17:50;;;;;;;5.20;3.40;;;25.40;28.80;;;;;;4989375;28;20978;-64
2022/08/08 12:20:16;;;;;;;2.53;2.33;;;25.50;29.20;;;;;;4990932;28;20482;-64
2022/08/08 12:22:51;;;;;;;4.87;2.60;;;25.40;27.40;;;;;;4993028;28;20343;-62
2022/08/08 12:25:23;;;;;;;4.63;2.70;;;25.50;26.90;;;;;;4991601;28;20191;-64
2022/08/08 12:27:49;;;;;;;6.60;2.93;;;25.70;27.10;;;;;;4992791;28;20909;-65
2022/08/08 12:30:15;;;;;;;7.13;2.60;;;26.00;26.30;;;;;;4992600;28;20462;-64
2022/08/08 12:32:43;;;;;;;5.20;2.87;;;26.20;26.20;;;;;;4992593;28;20770;-64
2022/08/08 12:35:20;;;;;;;3.97;2.97;;;26.30;26.00;;;;;;4992681;28;20841;-65
2022/08/08 12:38:07;;;;;;;4.83;2.70;;;26.20;24.90;;;;;;4992352;28;20411;-64
2022/08/08 12:40:37;;;;;;;3.83;2.37;;;26.10;23.90;;;;;;4992452;28;20423;-64
2022/08/08 12:43:03;;;;;;;2.83;2.63;;;26.10;24.10;;;;;;4992627;28;20412;-65
2022/08/08 12:45:40;;;;;;;5.33;2.57;;;25.80;22.50;;;;;;4992320;28;20439;-65
2022/08/08 12:48:35;;;;;;;2.67;2.47;;;25.90;22.10;;;;;;4992097;28;20897;-65
2022/08/08 12:51:01;;;;;;;7.33;2.90;;;25.90;20.30;;;;;;4975714;28;20687;-64
2022/08/08 12:53:29;;;;;;;3.30;2.23;;;25.80;19.60;;;;;;4992184;28;20392;-65
2022/08/08 12:55:57;;;;;;;5.60;2.40;;;26.00;17.70;;;;;;4992261;28;20520;-64
2022/08/08 12:58:25;;;;;;;5.80;2.47;;;25.90;17.00;;;;;;4991584;28;20446;-64
2022/08/08 13:00:51;;;;;;;8.00;2.80;;;26.00;15.90;;;;;;4991914;28;20416;-64
2022/08/08 13:03:27;;;;;;;2.10;1.90;;;26.00;15.20;;;;;;4992024;28;20411;-65
2022/08/08 13:06:15;;;;;;;68.23;8.27;;;26.20;14.00;;;;;;4992028;28;20399;-65
2022/08/08 13:08:46;;;;;;;3.37;2.43;;;26.30;13.90;;;;;;4991666;28;20452;-64
2022/08/08 13:11:26;;;;;;;4.83;2.30;;;25.90;12.60;;;;;;4991377;28;20447;-64
2022/08/08 13:14:14;;;;;;;4.77;2.60;;;25.70;12.50;;;;;;4991908;28;20435;-64
2022/08/08 13:16:40;;;;;;;3.87;2.77;;;25.70;12.20;;;;;;4991955;28;20416;-64
2022/08/08 13:19:09;;;;;;;2.73;2.50;;;25.60;10.50;;;;;;4991407;28;20977;-64
2022/08/08 13:21:47;;;;;;;2.50;2.30;;;25.80;11.20;;;;;;4991794;28;20538;-64
2022/08/08 13:24:13;;;;;;;3.53;2.47;;;26.00;10.90;;;;;;4991876;28;20437;-64
2022/08/08 13:26:39;;;;;;;3.07;2.50;;;26.20;10.50;;;;;;4992137;28;20912;-65
2022/08/08 13:29:12;;;;;;;2.93;2.00;;;26.30;9.80;;;;;;4991532;28;20462;-65